Terminal Aerodrome Forecast
Issued by NWS Cleveland, OH

Home | Current Version | Previous Version | Graphics & Text | Print | Product List | Glossary Off
Versions: 1 2 3 4 5 6 7 8 9 10 11 12 13 14 15 16 17 18 19 20

000
FTUS41 KCLE 212340
TAFMFD
TAF
KMFD 212340Z 2200/2224 18011KT P6SM VCTS SCT025 BKN045CB
     FM220100 25014KT P6SM BKN045
     FM220400 24008KT P6SM BKN025
     FM221300 25012KT P6SM SCT030
     FM221600 26012G20KT P6SM SCT040=

USA.gov is the U.S. government's official web portal to all federal, state and local government web resources and services.